sensor_id;sensor_type;location;lat;lon;timestamp;P1;durP1;ratioP1;P2;durP2;ratioP2
37051;SDS011;22964;52.272;13.356;2024-01-06T00:01:31;30.05;;;14.85;;
37051;SDS011;22964;52.272;13.356;2024-01-06T00:03:56;31.80;;;15.68;;
37051;SDS011;22964;52.272;13.356;2024-01-06T00:06:22;34.38;;;16.02;;
37051;SDS011;22964;52.272;13.356;2024-01-06T00:08:48;32.20;;;15.77;;
37051;SDS011;22964;52.272;13.356;2024-01-06T00:11:22;33.25;;;15.45;;
37051;SDS011;22964;52.272;13.356;2024-01-06T00:13:48;32.03;;;16.48;;
37051;SDS011;22964;52.272;13.356;2024-01-06T00:16:18;33.55;;;15.93;;
37051;SDS011;22964;52.272;13.356;2024-01-06T00:18:45;34.70;;;16.63;;
37051;SDS011;22964;52.272;13.356;2024-01-06T00:21:11;31.92;;;15.48;;
37051;SDS011;22964;52.272;13.356;2024-01-06T00:23:37;35.63;;;16.80;;
37051;SDS011;22964;52.272;13.356;2024-01-06T00:26:05;34.08;;;16.20;;
37051;SDS011;22964;52.272;13.356;2024-01-06T00:28:30;35.42;;;16.63;;
37051;SDS011;22964;52.272;13.356;2024-01-06T00:30:56;34.85;;;15.88;;
37051;SDS011;22964;52.272;13.356;2024-01-06T00:33:22;34.10;;;15.93;;
37051;SDS011;22964;52.272;13.356;2024-01-06T00:35:48;36.95;;;16.23;;
37051;SDS011;22964;52.272;13.356;2024-01-06T00:38:13;38.13;;;16.65;;
37051;SDS011;22964;52.272;13.356;2024-01-06T00:40:39;36.08;;;16.58;;
37051;SDS011;22964;52.272;13.356;2024-01-06T00:43:05;32.78;;;15.30;;
37051;SDS011;22964;52.272;13.356;2024-01-06T00:45:30;33.88;;;16.48;;
37051;SDS011;22964;52.272;13.356;2024-01-06T00:47:56;35.85;;;17.02;;
37051;SDS011;22964;52.272;13.356;2024-01-06T00:50:22;36.67;;;17.95;;
37051;SDS011;22964;52.272;13.356;2024-01-06T00:52:48;37.65;;;16.85;;
37051;SDS011;22964;52.272;13.356;2024-01-06T00:55:17;35.80;;;17.48;;
37051;SDS011;22964;52.272;13.356;2024-01-06T00:57:44;38.72;;;16.58;;
37051;SDS011;22964;52.272;13.356;2024-01-06T01:00:10;37.53;;;17.17;;
37051;SDS011;22964;52.272;13.356;2024-01-06T01:02:36;37.33;;;16.75;;
37051;SDS011;22964;52.272;13.356;2024-01-06T01:05:02;36.28;;;16.48;;
37051;SDS011;22964;52.272;13.356;2024-01-06T01:07:27;39.90;;;17.05;;
37051;SDS011;22964;52.272;13.356;2024-01-06T01:09:53;35.58;;;16.25;;
37051;SDS011;22964;52.272;13.356;2024-01-06T01:12:19;34.60;;;16.15;;
37051;SDS011;22964;52.272;13.356;2024-01-06T01:14:45;37.08;;;16.98;;
37051;SDS011;22964;52.272;13.356;2024-01-06T01:17:10;36.35;;;16.67;;
37051;SDS011;22964;52.272;13.356;2024-01-06T01:19:36;37.35;;;17.33;;
37051;SDS011;22964;52.272;13.356;2024-01-06T01:22:02;38.53;;;17.42;;
37051;SDS011;22964;52.272;13.356;2024-01-06T01:24:28;39.70;;;17.00;;
37051;SDS011;22964;52.272;13.356;2024-01-06T01:26:53;33.95;;;16.52;;
37051;SDS011;22964;52.272;13.356;2024-01-06T01:29:19;39.80;;;17.50;;
37051;SDS011;22964;52.272;13.356;2024-01-06T01:31:45;43.05;;;18.50;;
37051;SDS011;22964;52.272;13.356;2024-01-06T01:34:12;35.63;;;16.80;;
37051;SDS011;22964;52.272;13.356;2024-01-06T01:36:38;37.95;;;16.42;;
37051;SDS011;22964;52.272;13.356;2024-01-06T01:39:04;37.47;;;16.52;;
37051;SDS011;22964;52.272;13.356;2024-01-06T01:41:30;35.67;;;16.98;;
37051;SDS011;22964;52.272;13.356;2024-01-06T01:43:56;39.30;;;16.98;;
37051;SDS011;22964;52.272;13.356;2024-01-06T01:46:25;37.00;;;16.05;;
37051;SDS011;22964;52.272;13.356;2024-01-06T01:48:52;39.90;;;17.17;;
37051;SDS011;22964;52.272;13.356;2024-01-06T01:51:21;38.28;;;17.13;;
37051;SDS011;22964;52.272;13.356;2024-01-06T01:53:48;37.10;;;16.63;;
37051;SDS011;22964;52.272;13.356;2024-01-06T01:56:14;36.08;;;16.67;;
37051;SDS011;22964;52.272;13.356;2024-01-06T01:58:41;37.72;;;16.15;;
37051;SDS011;22964;52.272;13.356;2024-01-06T02:01:07;40.28;;;17.27;;
37051;SDS011;22964;52.272;13.356;2024-01-06T02:03:34;40.00;;;16.10;;
37051;SDS011;22964;52.272;13.356;2024-01-06T02:06:00;37.47;;;16.55;;
37051;SDS011;22964;52.272;13.356;2024-01-06T02:08:26;35.22;;;15.63;;
37051;SDS011;22964;52.272;13.356;2024-01-06T02:10:55;34.78;;;16.08;;
37051;SDS011;22964;52.272;13.356;2024-01-06T02:13:22;40.95;;;17.30;;
37051;SDS011;22964;52.272;13.356;2024-01-06T02:15:48;38.40;;;16.40;;
37051;SDS011;22964;52.272;13.356;2024-01-06T02:18:14;39.28;;;16.38;;
37051;SDS011;22964;52.272;13.356;2024-01-06T02:20:41;36.13;;;16.15;;
37051;SDS011;22964;52.272;13.356;2024-01-06T02:23:08;35.80;;;16.50;;
37051;SDS011;22964;52.272;13.356;2024-01-06T02:25:34;34.72;;;15.60;;
37051;SDS011;22964;52.272;13.356;2024-01-06T02:28:00;36.00;;;16.38;;
37051;SDS011;22964;52.272;13.356;2024-01-06T02:30:26;37.05;;;15.65;;
37051;SDS011;22964;52.272;13.356;2024-01-06T02:32:52;35.53;;;15.93;;
37051;SDS011;22964;52.272;13.356;2024-01-06T02:35:18;36.80;;;17.13;;
37051;SDS011;22964;52.272;13.356;2024-01-06T02:37:44;36.03;;;15.32;;
37051;SDS011;22964;52.272;13.356;2024-01-06T02:40:10;35.38;;;15.38;;
37051;SDS011;22964;52.272;13.356;2024-01-06T02:42:36;38.33;;;16.10;;
37051;SDS011;22964;52.272;13.356;2024-01-06T02:45:02;39.47;;;15.10;;
37051;SDS011;22964;52.272;13.356;2024-01-06T02:47:28;36.90;;;15.13;;
37051;SDS011;22964;52.272;13.356;2024-01-06T02:49:54;39.10;;;15.95;;
37051;SDS011;22964;52.272;13.356;2024-01-06T02:52:19;35.08;;;14.95;;
37051;SDS011;22964;52.272;13.356;2024-01-06T02:54:45;35.22;;;15.15;;
37051;SDS011;22964;52.272;13.356;2024-01-06T02:57:11;34.92;;;15.35;;
37051;SDS011;22964;52.272;13.356;2024-01-06T02:59:38;36.03;;;15.63;;
37051;SDS011;22964;52.272;13.356;2024-01-06T03:02:04;36.15;;;14.57;;
37051;SDS011;22964;52.272;13.356;2024-01-06T03:04:30;35.25;;;15.07;;
37051;SDS011;22964;52.272;13.356;2024-01-06T03:06:55;38.58;;;15.10;;
37051;SDS011;22964;52.272;13.356;2024-01-06T03:09:22;35.40;;;15.05;;
37051;SDS011;22964;52.272;13.356;2024-01-06T03:11:48;34.55;;;15.20;;
37051;SDS011;22964;52.272;13.356;2024-01-06T03:14:14;36.35;;;15.18;;
37051;SDS011;22964;52.272;13.356;2024-01-06T03:16:40;33.92;;;14.88;;
37051;SDS011;22964;52.272;13.356;2024-01-06T03:19:06;35.58;;;15.20;;
37051;SDS011;22964;52.272;13.356;2024-01-06T03:21:31;38.78;;;15.20;;
37051;SDS011;22964;52.272;13.356;2024-01-06T03:23:57;33.97;;;15.60;;
37051;SDS011;22964;52.272;13.356;2024-01-06T03:26:22;40.53;;;15.80;;
37051;SDS011;22964;52.272;13.356;2024-01-06T03:28:49;37.42;;;15.23;;
37051;SDS011;22964;52.272;13.356;2024-01-06T03:31:15;36.03;;;15.40;;
37051;SDS011;22964;52.272;13.356;2024-01-06T03:33:41;31.45;;;14.77;;
37051;SDS011;22964;52.272;13.356;2024-01-06T03:36:09;34.50;;;14.60;;
37051;SDS011;22964;52.272;13.356;2024-01-06T03:38:34;37.25;;;15.00;;
37051;SDS011;22964;52.272;13.356;2024-01-06T03:41:02;33.38;;;14.93;;
37051;SDS011;22964;52.272;13.356;2024-01-06T03:43:28;33.78;;;14.95;;
37051;SDS011;22964;52.272;13.356;2024-01-06T03:45:53;32.20;;;14.25;;
37051;SDS011;22964;52.272;13.356;2024-01-06T03:48:20;33.88;;;14.18;;
37051;SDS011;22964;52.272;13.356;2024-01-06T03:50:46;34.08;;;14.55;;
37051;SDS011;22964;52.272;13.356;2024-01-06T03:53:12;32.25;;;13.55;;
37051;SDS011;22964;52.272;13.356;2024-01-06T03:55:37;35.97;;;15.00;;
37051;SDS011;22964;52.272;13.356;2024-01-06T03:58:03;34.65;;;14.82;;
37051;SDS011;22964;52.272;13.356;2024-01-06T04:00:29;30.15;;;14.07;;
37051;SDS011;22964;52.272;13.356;2024-01-06T04:02:54;34.38;;;14.68;;
37051;SDS011;22964;52.272;13.356;2024-01-06T04:05:20;36.53;;;14.48;;
37051;SDS011;22964;52.272;13.356;2024-01-06T04:07:46;42.05;;;16.02;;
37051;SDS011;22964;52.272;13.356;2024-01-06T04:10:11;34.55;;;15.02;;
37051;SDS011;22964;52.272;13.356;2024-01-06T04:12:37;35.97;;;14.88;;
37051;SDS011;22964;52.272;13.356;2024-01-06T04:15:03;36.85;;;15.18;;
37051;SDS011;22964;52.272;13.356;2024-01-06T04:17:29;33.20;;;14.63;;
37051;SDS011;22964;52.272;13.356;2024-01-06T04:19:55;36.25;;;14.68;;
37051;SDS011;22964;52.272;13.356;2024-01-06T04:22:21;32.90;;;14.07;;
37051;SDS011;22964;52.272;13.356;2024-01-06T04:24:47;33.05;;;14.55;;
37051;SDS011;22964;52.272;13.356;2024-01-06T04:27:12;33.90;;;14.80;;
37051;SDS011;22964;52.272;13.356;2024-01-06T04:29:38;36.08;;;14.13;;
37051;SDS011;22964;52.272;13.356;2024-01-06T04:32:06;37.22;;;16.05;;
37051;SDS011;22964;52.272;13.356;2024-01-06T04:34:32;38.38;;;15.75;;
37051;SDS011;22964;52.272;13.356;2024-01-06T04:36:58;35.25;;;15.38;;
37051;SDS011;22964;52.272;13.356;2024-01-06T04:39:24;35.95;;;15.27;;
37051;SDS011;22964;52.272;13.356;2024-01-06T04:41:50;35.17;;;14.80;;
37051;SDS011;22964;52.272;13.356;2024-01-06T04:44:15;39.55;;;14.70;;
37051;SDS011;22964;52.272;13.356;2024-01-06T04:46:43;38.90;;;14.32;;
37051;SDS011;22964;52.272;13.356;2024-01-06T04:49:08;34.53;;;14.55;;
37051;SDS011;22964;52.272;13.356;2024-01-06T04:51:35;36.92;;;15.65;;
37051;SDS011;22964;52.272;13.356;2024-01-06T04:54:00;33.50;;;13.93;;
37051;SDS011;22964;52.272;13.356;2024-01-06T04:56:26;33.63;;;14.27;;
37051;SDS011;22964;52.272;13.356;2024-01-06T04:58:52;36.83;;;15.38;;
37051;SDS011;22964;52.272;13.356;2024-01-06T05:01:17;36.45;;;14.90;;
37051;SDS011;22964;52.272;13.356;2024-01-06T05:03:43;35.28;;;14.68;;
37051;SDS011;22964;52.272;13.356;2024-01-06T05:06:09;33.13;;;14.32;;
37051;SDS011;22964;52.272;13.356;2024-01-06T05:08:35;33.60;;;15.50;;
37051;SDS011;22964;52.272;13.356;2024-01-06T05:11:04;35.20;;;15.45;;
37051;SDS011;22964;52.272;13.356;2024-01-06T05:13:30;40.10;;;14.52;;
37051;SDS011;22964;52.272;13.356;2024-01-06T05:15:56;37.13;;;15.13;;
37051;SDS011;22964;52.272;13.356;2024-01-06T05:18:22;38.65;;;14.90;;
37051;SDS011;22964;52.272;13.356;2024-01-06T05:20:47;35.67;;;15.35;;
37051;SDS011;22964;52.272;13.356;2024-01-06T05:23:13;38.38;;;14.88;;
37051;SDS011;22964;52.272;13.356;2024-01-06T05:25:39;34.45;;;14.95;;
37051;SDS011;22964;52.272;13.356;2024-01-06T05:28:05;34.58;;;14.38;;
37051;SDS011;22964;52.272;13.356;2024-01-06T05:30:30;38.03;;;16.13;;
37051;SDS011;22964;52.272;13.356;2024-01-06T05:32:56;33.80;;;14.27;;
37051;SDS011;22964;52.272;13.356;2024-01-06T05:35:22;33.92;;;15.70;;
37051;SDS011;22964;52.272;13.356;2024-01-06T05:37:48;37.28;;;15.38;;
37051;SDS011;22964;52.272;13.356;2024-01-06T05:40:13;36.88;;;15.73;;
37051;SDS011;22964;52.272;13.356;2024-01-06T05:42:39;38.42;;;15.68;;
37051;SDS011;22964;52.272;13.356;2024-01-06T05:45:05;34.58;;;14.48;;
37051;SDS011;22964;52.272;13.356;2024-01-06T05:47:31;35.00;;;14.48;;
37051;SDS011;22964;52.272;13.356;2024-01-06T05:49:57;34.88;;;14.73;;
37051;SDS011;22964;52.272;13.356;2024-01-06T05:52:23;31.80;;;13.98;;
37051;SDS011;22964;52.272;13.356;2024-01-06T05:54:49;31.50;;;13.80;;
37051;SDS011;22964;52.272;13.356;2024-01-06T05:57:14;35.72;;;14.80;;
37051;SDS011;22964;52.272;13.356;2024-01-06T05:59:40;36.85;;;15.38;;
37051;SDS011;22964;52.272;13.356;2024-01-06T06:02:06;34.88;;;14.77;;
37051;SDS011;22964;52.272;13.356;2024-01-06T06:04:32;31.88;;;15.07;;
37051;SDS011;22964;52.272;13.356;2024-01-06T06:06:57;33.22;;;15.05;;
37051;SDS011;22964;52.272;13.356;2024-01-06T06:09:23;34.75;;;14.43;;
37051;SDS011;22964;52.272;13.356;2024-01-06T06:11:49;35.85;;;14.05;;
37051;SDS011;22964;52.272;13.356;2024-01-06T06:14:14;29.33;;;12.75;;
37051;SDS011;22964;52.272;13.356;2024-01-06T06:16:40;33.00;;;13.95;;
37051;SDS011;22964;52.272;13.356;2024-01-06T06:19:06;36.00;;;14.43;;
37051;SDS011;22964;52.272;13.356;2024-01-06T06:21:32;32.00;;;14.10;;
37051;SDS011;22964;52.272;13.356;2024-01-06T06:23:59;32.65;;;14.43;;
37051;SDS011;22964;52.272;13.356;2024-01-06T06:26:25;39.53;;;16.13;;
37051;SDS011;22964;52.272;13.356;2024-01-06T06:28:52;40.88;;;16.58;;
37051;SDS011;22964;52.272;13.356;2024-01-06T06:31:17;39.00;;;16.70;;
37051;SDS011;22964;52.272;13.356;2024-01-06T06:33:43;41.22;;;16.73;;
37051;SDS011;22964;52.272;13.356;2024-01-06T06:36:09;40.00;;;17.25;;
37051;SDS011;22964;52.272;13.356;2024-01-06T06:38:35;35.65;;;16.73;;
37051;SDS011;22964;52.272;13.356;2024-01-06T06:41:01;42.80;;;16.50;;
37051;SDS011;22964;52.272;13.356;2024-01-06T06:43:27;37.70;;;16.20;;
37051;SDS011;22964;52.272;13.356;2024-01-06T06:45:53;40.58;;;16.35;;
37051;SDS011;22964;52.272;13.356;2024-01-06T06:48:20;40.53;;;17.17;;
37051;SDS011;22964;52.272;13.356;2024-01-06T06:50:46;34.58;;;15.38;;
37051;SDS011;22964;52.272;13.356;2024-01-06T06:53:12;41.28;;;17.02;;
37051;SDS011;22964;52.272;13.356;2024-01-06T06:55:38;35.60;;;15.15;;
37051;SDS011;22964;52.272;13.356;2024-01-06T06:58:04;37.22;;;15.90;;
37051;SDS011;22964;52.272;13.356;2024-01-06T07:00:33;39.40;;;15.93;;
37051;SDS011;22964;52.272;13.356;2024-01-06T07:03:00;39.00;;;17.02;;
37051;SDS011;22964;52.272;13.356;2024-01-06T07:05:26;43.03;;;16.65;;
37051;SDS011;22964;52.272;13.356;2024-01-06T07:07:52;42.13;;;17.05;;
37051;SDS011;22964;52.272;13.356;2024-01-06T07:10:17;41.72;;;16.55;;
37051;SDS011;22964;52.272;13.356;2024-01-06T07:12:43;40.05;;;16.42;;
37051;SDS011;22964;52.272;13.356;2024-01-06T07:15:09;40.80;;;16.35;;
37051;SDS011;22964;52.272;13.356;2024-01-06T07:17:37;38.05;;;17.02;;
37051;SDS011;22964;52.272;13.356;2024-01-06T07:20:04;36.80;;;15.85;;
37051;SDS011;22964;52.272;13.356;2024-01-06T07:22:32;44.03;;;16.48;;
37051;SDS011;22964;52.272;13.356;2024-01-06T07:24:59;40.97;;;16.48;;
37051;SDS011;22964;52.272;13.356;2024-01-06T07:27:26;39.63;;;15.95;;
37051;SDS011;22964;52.272;13.356;2024-01-06T07:29:52;37.05;;;15.77;;
37051;SDS011;22964;52.272;13.356;2024-01-06T07:32:18;40.22;;;16.45;;
37051;SDS011;22964;52.272;13.356;2024-01-06T07:34:43;39.53;;;16.55;;
37051;SDS011;22964;52.272;13.356;2024-01-06T07:37:09;38.17;;;16.90;;
37051;SDS011;22964;52.272;13.356;2024-01-06T07:39:35;41.90;;;16.55;;
37051;SDS011;22964;52.272;13.356;2024-01-06T07:42:00;42.85;;;17.30;;
37051;SDS011;22964;52.272;13.356;2024-01-06T07:44:27;39.25;;;15.88;;
37051;SDS011;22964;52.272;13.356;2024-01-06T07:46:53;41.15;;;16.77;;
37051;SDS011;22964;52.272;13.356;2024-01-06T07:49:19;36.88;;;15.95;;
37051;SDS011;22964;52.272;13.356;2024-01-06T07:51:45;41.72;;;16.45;;
37051;SDS011;22964;52.272;13.356;2024-01-06T07:54:10;39.78;;;16.45;;
37051;SDS011;22964;52.272;13.356;2024-01-06T07:56:37;43.83;;;16.75;;
37051;SDS011;22964;52.272;13.356;2024-01-06T07:59:03;40.90;;;16.92;;
37051;SDS011;22964;52.272;13.356;2024-01-06T08:01:29;39.55;;;16.00;;
37051;SDS011;22964;52.272;13.356;2024-01-06T08:03:57;37.50;;;14.75;;
37051;SDS011;22964;52.272;13.356;2024-01-06T08:06:23;41.05;;;16.48;;
37051;SDS011;22964;52.272;13.356;2024-01-06T08:08:48;41.47;;;16.17;;
37051;SDS011;22964;52.272;13.356;2024-01-06T08:11:14;38.55;;;15.63;;
37051;SDS011;22964;52.272;13.356;2024-01-06T08:13:40;46.42;;;17.33;;
37051;SDS011;22964;52.272;13.356;2024-01-06T08:16:06;41.22;;;16.80;;
37051;SDS011;22964;52.272;13.356;2024-01-06T08:18:31;42.38;;;17.50;;
37051;SDS011;22964;52.272;13.356;2024-01-06T08:20:57;44.75;;;17.10;;
37051;SDS011;22964;52.272;13.356;2024-01-06T08:23:23;42.40;;;16.92;;
37051;SDS011;22964;52.272;13.356;2024-01-06T08:25:49;42.35;;;16.92;;
37051;SDS011;22964;52.272;13.356;2024-01-06T08:28:15;38.00;;;16.85;;
37051;SDS011;22964;52.272;13.356;2024-01-06T08:30:41;38.47;;;16.48;;
37051;SDS011;22964;52.272;13.356;2024-01-06T08:33:07;38.00;;;16.65;;
37051;SDS011;22964;52.272;13.356;2024-01-06T08:35:33;36.47;;;15.98;;
37051;SDS011;22964;52.272;13.356;2024-01-06T08:37:59;44.78;;;17.10;;
37051;SDS011;22964;52.272;13.356;2024-01-06T08:40:24;39.17;;;16.02;;
37051;SDS011;22964;52.272;13.356;2024-01-06T08:42:50;34.40;;;15.18;;
37051;SDS011;22964;52.272;13.356;2024-01-06T08:45:16;36.28;;;14.98;;
37051;SDS011;22964;52.272;13.356;2024-01-06T08:47:42;40.80;;;15.57;;
37051;SDS011;22964;52.272;13.356;2024-01-06T08:50:07;39.20;;;15.70;;
37051;SDS011;22964;52.272;13.356;2024-01-06T08:52:33;40.92;;;15.88;;
37051;SDS011;22964;52.272;13.356;2024-01-06T08:54:59;38.47;;;14.48;;
37051;SDS011;22964;52.272;13.356;2024-01-06T08:57:24;40.97;;;15.95;;
37051;SDS011;22964;52.272;13.356;2024-01-06T08:59:50;34.22;;;14.07;;
37051;SDS011;22964;52.272;13.356;2024-01-06T09:02:16;35.78;;;14.48;;
37051;SDS011;22964;52.272;13.356;2024-01-06T09:04:41;37.53;;;14.10;;
37051;SDS011;22964;52.272;13.356;2024-01-06T09:07:07;39.10;;;15.48;;
37051;SDS011;22964;52.272;13.356;2024-01-06T09:09:33;37.97;;;15.38;;
37051;SDS011;22964;52.272;13.356;2024-01-06T09:11:59;35.90;;;15.05;;
37051;SDS011;22964;52.272;13.356;2024-01-06T09:14:25;38.55;;;14.50;;
37051;SDS011;22964;52.272;13.356;2024-01-06T09:16:51;37.60;;;14.52;;
37051;SDS011;22964;52.272;13.356;2024-01-06T09:19:17;38.75;;;13.82;;
37051;SDS011;22964;52.272;13.356;2024-01-06T09:21:43;35.15;;;15.23;;
37051;SDS011;22964;52.272;13.356;2024-01-06T09:24:09;38.22;;;14.75;;
37051;SDS011;22964;52.272;13.356;2024-01-06T09:26:34;36.78;;;14.48;;
37051;SDS011;22964;52.272;13.356;2024-01-06T09:29:03;37.42;;;14.52;;
37051;SDS011;22964;52.272;13.356;2024-01-06T09:31:29;41.85;;;15.95;;
37051;SDS011;22964;52.272;13.356;2024-01-06T09:33:55;39.88;;;14.75;;
37051;SDS011;22964;52.272;13.356;2024-01-06T09:36:25;36.47;;;14.40;;
37051;SDS011;22964;52.272;13.356;2024-01-06T09:38:50;39.67;;;14.90;;
37051;SDS011;22964;52.272;13.356;2024-01-06T09:41:16;43.38;;;16.08;;
37051;SDS011;22964;52.272;13.356;2024-01-06T09:43:42;37.70;;;14.95;;
37051;SDS011;22964;52.272;13.356;2024-01-06T09:46:15;39.28;;;14.07;;
37051;SDS011;22964;52.272;13.356;2024-01-06T09:48:46;42.95;;;15.00;;
37051;SDS011;22964;52.272;13.356;2024-01-06T09:51:15;42.85;;;15.10;;
37051;SDS011;22964;52.272;13.356;2024-01-06T09:53:49;35.20;;;14.02;;
37051;SDS011;22964;52.272;13.356;2024-01-06T09:56:25;38.42;;;14.27;;
37051;SDS011;22964;52.272;13.356;2024-01-06T09:58:53;41.20;;;13.80;;
37051;SDS011;22964;52.272;13.356;2024-01-06T10:01:19;36.50;;;13.88;;
37051;SDS011;22964;52.272;13.356;2024-01-06T10:03:46;34.30;;;14.02;;
37051;SDS011;22964;52.272;13.356;2024-01-06T10:06:15;37.88;;;14.80;;
37051;SDS011;22964;52.272;13.356;2024-01-06T10:08:48;41.50;;;15.38;;
37051;SDS011;22964;52.272;13.356;2024-01-06T10:11:14;39.03;;;15.07;;
37051;SDS011;22964;52.272;13.356;2024-01-06T10:13:40;42.33;;;15.35;;
37051;SDS011;22964;52.272;13.356;2024-01-06T10:16:06;33.65;;;13.23;;
37051;SDS011;22964;52.272;13.356;2024-01-06T10:18:32;34.38;;;13.73;;
37051;SDS011;22964;52.272;13.356;2024-01-06T10:21:03;39.33;;;14.57;;
37051;SDS011;22964;52.272;13.356;2024-01-06T10:23:31;40.33;;;13.98;;
37051;SDS011;22964;52.272;13.356;2024-01-06T10:25:57;35.83;;;13.27;;
37051;SDS011;22964;52.272;13.356;2024-01-06T10:28:23;31.35;;;13.13;;
37051;SDS011;22964;52.272;13.356;2024-01-06T10:30:51;31.80;;;12.88;;
37051;SDS011;22964;52.272;13.356;2024-01-06T10:33:21;32.83;;;12.75;;
37051;SDS011;22964;52.272;13.356;2024-01-06T10:35:48;32.50;;;12.80;;
37051;SDS011;22964;52.272;13.356;2024-01-06T10:38:14;40.53;;;14.45;;
37051;SDS011;22964;52.272;13.356;2024-01-06T10:43:42;32.20;;;13.38;;
37051;SDS011;22964;52.272;13.356;2024-01-06T10:46:09;31.05;;;12.75;;
37051;SDS011;22964;52.272;13.356;2024-01-06T10:48:37;37.50;;;12.40;;
37051;SDS011;22964;52.272;13.356;2024-01-06T10:51:08;30.95;;;12.77;;
37051;SDS011;22964;52.272;13.356;2024-01-06T10:53:35;34.22;;;13.73;;
37051;SDS011;22964;52.272;13.356;2024-01-06T10:56:03;37.92;;;13.65;;
37051;SDS011;22964;52.272;13.356;2024-01-06T10:58:30;34.20;;;13.35;;
37051;SDS011;22964;52.272;13.356;2024-01-06T11:00:58;33.75;;;13.40;;
37051;SDS011;22964;52.272;13.356;2024-01-06T11:03:26;30.20;;;12.65;;
37051;SDS011;22964;52.272;13.356;2024-01-06T11:05:54;33.60;;;13.90;;
37051;SDS011;22964;52.272;13.356;2024-01-06T11:08:21;33.47;;;13.35;;
37051;SDS011;22964;52.272;13.356;2024-01-06T11:10:49;32.38;;;12.65;;
37051;SDS011;22964;52.272;13.356;2024-01-06T11:13:16;33.65;;;13.48;;
37051;SDS011;22964;52.272;13.356;2024-01-06T11:15:48;33.90;;;13.43;;
37051;SDS011;22964;52.272;13.356;2024-01-06T11:23:40;38.35;;;13.90;;
37051;SDS011;22964;52.272;13.356;2024-01-06T11:26:06;38.60;;;14.80;;
37051;SDS011;22964;52.272;13.356;2024-01-06T11:28:45;39.38;;;15.00;;
37051;SDS011;22964;52.272;13.356;2024-01-06T11:31:12;37.45;;;15.13;;
37051;SDS011;22964;52.272;13.356;2024-01-06T11:33:44;39.50;;;14.80;;
37051;SDS011;22964;52.272;13.356;2024-01-06T11:36:14;35.58;;;14.50;;
37051;SDS011;22964;52.272;13.356;2024-01-06T11:38:40;33.40;;;14.20;;
37051;SDS011;22964;52.272;13.356;2024-01-06T11:41:07;40.30;;;15.68;;
37051;SDS011;22964;52.272;13.356;2024-01-06T11:43:37;31.38;;;12.93;;
37051;SDS011;22964;52.272;13.356;2024-01-06T11:46:05;37.33;;;13.98;;
37051;SDS011;22964;52.272;13.356;2024-01-06T11:48:32;35.67;;;14.63;;
37051;SDS011;22964;52.272;13.356;2024-01-06T11:50:58;36.72;;;15.20;;
37051;SDS011;22964;52.272;13.356;2024-01-06T11:53:27;36.60;;;15.10;;
37051;SDS011;22964;52.272;13.356;2024-01-06T11:55:53;39.47;;;15.00;;
37051;SDS011;22964;52.272;13.356;2024-01-06T11:58:19;37.85;;;15.43;;
37051;SDS011;22964;52.272;13.356;2024-01-06T12:00:45;35.00;;;14.13;;
37051;SDS011;22964;52.272;13.356;2024-01-06T12:03:21;36.13;;;14.88;;
37051;SDS011;22964;52.272;13.356;2024-01-06T12:06:09;34.22;;;14.45;;
37051;SDS011;22964;52.272;13.356;2024-01-06T12:08:34;34.67;;;14.05;;
37051;SDS011;22964;52.272;13.356;2024-01-06T12:11:03;32.00;;;13.85;;
37051;SDS011;22964;52.272;13.356;2024-01-06T12:13:29;30.05;;;13.80;;
37051;SDS011;22964;52.272;13.356;2024-01-06T12:15:55;30.67;;;14.25;;
37051;SDS011;22964;52.272;13.356;2024-01-06T12:18:21;32.50;;;14.95;;
37051;SDS011;22964;52.272;13.356;2024-01-06T12:20:49;34.90;;;14.48;;
37051;SDS011;22964;52.272;13.356;2024-01-06T12:23:28;34.20;;;14.38;;
37051;SDS011;22964;52.272;13.356;2024-01-06T12:25:54;26.83;;;12.93;;
37051;SDS011;22964;52.272;13.356;2024-01-06T12:28:20;30.52;;;13.88;;
37051;SDS011;22964;52.272;13.356;2024-01-06T12:30:46;29.38;;;13.15;;
37051;SDS011;22964;52.272;13.356;2024-01-06T12:33:12;32.38;;;13.95;;
37051;SDS011;22964;52.272;13.356;2024-01-06T12:35:39;28.20;;;12.48;;
37051;SDS011;22964;52.272;13.356;2024-01-06T12:38:04;30.30;;;14.00;;
37051;SDS011;22964;52.272;13.356;2024-01-06T12:40:34;31.55;;;13.82;;
37051;SDS011;22964;52.272;13.356;2024-01-06T12:43:02;29.02;;;13.13;;
37051;SDS011;22964;52.272;13.356;2024-01-06T12:45:29;25.90;;;12.55;;
37051;SDS011;22964;52.272;13.356;2024-01-06T12:47:55;29.10;;;13.57;;
37051;SDS011;22964;52.272;13.356;2024-01-06T12:50:20;30.08;;;13.75;;
37051;SDS011;22964;52.272;13.356;2024-01-06T12:52:46;27.17;;;13.57;;
37051;SDS011;22964;52.272;13.356;2024-01-06T12:55:12;27.70;;;12.57;;
37051;SDS011;22964;52.272;13.356;2024-01-06T12:57:38;23.73;;;12.35;;
37051;SDS011;22964;52.272;13.356;2024-01-06T13:00:04;24.77;;;12.73;;
37051;SDS011;22964;52.272;13.356;2024-01-06T13:02:36;26.08;;;12.40;;
37051;SDS011;22964;52.272;13.356;2024-01-06T13:05:02;28.13;;;13.15;;
37051;SDS011;22964;52.272;13.356;2024-01-06T13:07:29;26.33;;;12.20;;
37051;SDS011;22964;52.272;13.356;2024-01-06T13:09:55;30.63;;;14.57;;
37051;SDS011;22964;52.272;13.356;2024-01-06T13:12:21;28.90;;;13.60;;
37051;SDS011;22964;52.272;13.356;2024-01-06T13:14:48;26.48;;;13.20;;
37051;SDS011;22964;52.272;13.356;2024-01-06T13:17:16;29.10;;;14.02;;
37051;SDS011;22964;52.272;13.356;2024-01-06T13:19:41;29.77;;;13.73;;
37051;SDS011;22964;52.272;13.356;2024-01-06T13:22:07;29.48;;;13.48;;
37051;SDS011;22964;52.272;13.356;2024-01-06T13:24:33;31.83;;;14.40;;
37051;SDS011;22964;52.272;13.356;2024-01-06T13:26:59;28.35;;;13.38;;
37051;SDS011;22964;52.272;13.356;2024-01-06T13:29:27;30.27;;;13.40;;
37051;SDS011;22964;52.272;13.356;2024-01-06T13:31:54;27.77;;;13.52;;
37051;SDS011;22964;52.272;13.356;2024-01-06T13:34:19;30.85;;;13.27;;
37051;SDS011;22964;52.272;13.356;2024-01-06T13:36:45;27.67;;;13.55;;
37051;SDS011;22964;52.272;13.356;2024-01-06T13:39:12;27.45;;;12.45;;
37051;SDS011;22964;52.272;13.356;2024-01-06T13:41:48;30.70;;;14.43;;
37051;SDS011;22964;52.272;13.356;2024-01-06T13:44:14;30.88;;;13.45;;
37051;SDS011;22964;52.272;13.356;2024-01-06T13:46:41;27.27;;;13.57;;
37051;SDS011;22964;52.272;13.356;2024-01-06T13:49:12;27.63;;;13.73;;
37051;SDS011;22964;52.272;13.356;2024-01-06T13:51:41;29.48;;;13.82;;
37051;SDS011;22964;52.272;13.356;2024-01-06T13:54:07;28.30;;;14.18;;
37051;SDS011;22964;52.272;13.356;2024-01-06T13:56:34;33.72;;;18.02;;
37051;SDS011;22964;52.272;13.356;2024-01-06T13:59:00;42.30;;;18.15;;
37051;SDS011;22964;52.272;13.356;2024-01-06T14:01:27;29.15;;;14.23;;
37051;SDS011;22964;52.272;13.356;2024-01-06T14:03:53;31.75;;;15.70;;
37051;SDS011;22964;52.272;13.356;2024-01-06T14:06:25;28.55;;;14.57;;
37051;SDS011;22964;52.272;13.356;2024-01-06T14:08:55;27.27;;;14.02;;
37051;SDS011;22964;52.272;13.356;2024-01-06T14:11:22;30.17;;;14.30;;
37051;SDS011;22964;52.272;13.356;2024-01-06T14:13:48;29.05;;;14.63;;